Southview, Pennsylvania
Current Conditions -  °F | °C
As of 3:51 AM on Wednesday 26 Nov 2014 (Local Time) from KPIT Reporting Station
Overcast Overcast  
Wind Chill: 25°   Ceiling: 15000
Heat Index: 31°   Visibility: 10mi
Dew Point: 25°   Wind: 6mph
Humidity: 79%   Direction: 20°NNE
Pressure: 30.12"   Gusts: NA
Location:  40.33°N, 80.26°W
Report Text: KPIT 260851Z 02005KT 10SM BKN150 OVC200 M01/M04 A3012 RMK AO2 SLP217 T10061039 58019
Loading
Personal Weather Stations






























Interactive Weather Map New forecast layout! Learn more

10-Day Weather Forecast

Advertisements
Track Severe Weather on mobile